Time;durP1;ratioP1;P1;durP2;ratioP2;P2;SDS_P1;SDS_P2;PMS_P1;PMS_P2;Temp;Humidity;BMP_temperature;BMP_pressure;BME280_temperature;BME280_humidity;BME280_pressure;Samples;Min_cycle;Max_cycle;Signal;HPM_P1;HPM_P2
2023/04/01 00:02:16;;;;;;;3.20;0.80;;;12.80;35.90;;;;;;10293958;28;20236;-73
2023/04/01 00:07:19;;;;;;;0.87;0.70;;;12.70;35.80;;;;;;10286262;28;20228;-73
2023/04/01 00:12:24;;;;;;;0.77;0.60;;;12.70;35.90;;;;;;10290939;28;20235;-73
2023/04/01 00:17:28;;;;;;;1.20;0.60;;;12.70;35.90;;;;;;10288559;28;20236;-73
2023/04/01 00:22:31;;;;;;;0.50;0.50;;;12.60;35.90;;;;;;10290744;28;20250;-73
2023/04/01 00:27:36;;;;;;;0.80;0.60;;;12.60;36.00;;;;;;10291816;28;20230;-73
2023/04/01 00:32:39;;;;;;;0.60;0.60;;;12.50;36.10;;;;;;10296793;28;20231;-73
2023/04/01 00:37:43;;;;;;;1.10;0.70;;;12.50;36.10;;;;;;10296434;28;20228;-73
2023/04/01 00:42:47;;;;;;;2.70;0.90;;;12.50;36.10;;;;;;10284672;28;20236;-74
2023/04/01 00:47:50;;;;;;;1.00;0.67;;;12.50;36.20;;;;;;10287898;28;20351;-73
2023/04/01 00:52:54;;;;;;;1.07;0.70;;;12.40;36.30;;;;;;10290033;28;20228;-72
2023/04/01 00:58:00;;;;;;;0.73;0.70;;;12.40;36.50;;;;;;10285312;28;20234;-73
2023/04/01 01:03:04;;;;;;;1.00;0.70;;;12.40;36.80;;;;;;10292245;28;20220;-73
2023/04/01 01:08:15;;;;;;;1.50;0.70;;;12.30;36.60;;;;;;10285408;28;20231;-73
2023/04/01 01:13:27;;;;;;;1.40;0.70;;;12.40;36.90;;;;;;10286636;28;20716;-73
2023/04/01 01:18:36;;;;;;;1.37;0.70;;;12.30;36.90;;;;;;10290608;28;20881;-73
2023/04/01 01:23:58;;;;;;;0.83;0.73;;;12.30;37.10;;;;;;10289968;28;20650;-73
2023/04/01 01:29:16;;;;;;;1.57;0.80;;;12.20;37.20;;;;;;10295006;28;20237;-73
2023/04/01 01:34:24;;;;;;;1.23;0.80;;;12.20;37.20;;;;;;10289053;28;20701;-73
2023/04/01 01:39:32;;;;;;;2.23;0.77;;;12.20;37.10;;;;;;10290304;28;20232;-73
2023/04/01 01:44:37;;;;;;;2.60;0.80;;;12.20;37.00;;;;;;10296359;28;20835;-73
2023/04/01 01:49:43;;;;;;;2.13;0.93;;;12.20;37.00;;;;;;10294015;28;20653;-73
2023/04/01 01:54:52;;;;;;;1.27;0.73;;;12.20;37.00;;;;;;10301515;28;20236;-73
2023/04/01 01:59:59;;;;;;;1.23;0.77;;;12.10;37.00;;;;;;10293890;28;20250;-73
2023/04/01 02:05:05;;;;;;;1.97;0.83;;;12.20;37.00;;;;;;10289196;28;20223;-72
2023/04/01 02:10:10;;;;;;;2.50;0.90;;;12.20;36.90;;;;;;10287060;28;20239;-72
2023/04/01 02:15:16;;;;;;;1.43;0.70;;;12.10;37.10;;;;;;10293425;28;20239;-73
2023/04/01 02:20:22;;;;;;;0.93;0.77;;;12.00;37.10;;;;;;10291714;28;20629;-73
2023/04/01 02:25:30;;;;;;;1.43;0.60;;;12.00;37.00;;;;;;10288682;28;20234;-73
2023/04/01 02:30:36;;;;;;;1.20;0.77;;;12.00;37.00;;;;;;10289955;28;20766;-73
2023/04/01 02:35:39;;;;;;;1.50;0.70;;;12.10;37.00;;;;;;10284677;28;20227;-73
2023/04/01 02:40:47;;;;;;;0.50;0.50;;;12.10;36.90;;;;;;10303587;28;20738;-73
2023/04/01 02:45:50;;;;;;;0.70;0.70;;;12.00;37.20;;;;;;10288472;28;20614;-73
2023/04/01 02:50:53;;;;;;;1.33;0.60;;;12.00;37.00;;;;;;10294585;28;20640;-74
2023/04/01 02:55:57;;;;;;;1.17;0.73;;;12.00;37.00;;;;;;10285112;28;20227;-74
2023/04/01 03:01:01;;;;;;;1.20;0.60;;;11.90;37.30;;;;;;10289764;28;20254;-73
2023/04/01 03:06:07;;;;;;;1.73;0.77;;;11.90;37.30;;;;;;10283338;28;20223;-73
2023/04/01 03:11:12;;;;;;;0.70;0.70;;;11.90;37.50;;;;;;10284211;28;20242;-73
2023/04/01 03:16:15;;;;;;;1.40;0.60;;;11.90;37.40;;;;;;10286430;28;20232;-74
2023/04/01 03:21:20;;;;;;;0.90;0.60;;;11.90;37.30;;;;;;10285218;28;20666;-74
2023/04/01 03:26:26;;;;;;;0.90;0.57;;;11.90;37.30;;;;;;10291363;28;20241;-74
2023/04/01 03:31:29;;;;;;;0.50;0.50;;;11.90;37.30;;;;;;10283170;28;20238;-73
2023/04/01 03:36:32;;;;;;;0.57;0.50;;;11.90;37.30;;;;;;10290583;28;20238;-74
2023/04/01 03:41:38;;;;;;;0.50;0.50;;;11.90;37.30;;;;;;10285334;28;20227;-74
2023/04/01 03:46:41;;;;;;;0.93;0.80;;;11.90;37.30;;;;;;10288097;28;20231;-74
2023/04/01 03:51:45;;;;;;;1.00;0.60;;;11.90;37.20;;;;;;10292565;28;20238;-74
2023/04/01 03:56:50;;;;;;;0.70;0.60;;;11.90;37.00;;;;;;10288168;28;20612;-74
2023/04/01 04:01:53;;;;;;;1.50;0.60;;;11.90;37.20;;;;;;10280755;28;20223;-74
2023/04/01 04:06:57;;;;;;;0.43;0.43;;;11.80;37.10;;;;;;10285132;28;20234;-74
2023/04/01 04:12:02;;;;;;;0.70;0.50;;;11.80;37.10;;;;;;10286443;28;20635;-74
2023/04/01 04:17:05;;;;;;;0.63;0.50;;;11.70;37.20;;;;;;10282946;28;20245;-73
2023/04/01 04:22:09;;;;;;;0.57;0.57;;;11.70;37.20;;;;;;10283674;28;20232;-74
2023/04/01 04:27:13;;;;;;;0.50;0.50;;;11.60;37.20;;;;;;10289098;28;20259;-73
2023/04/01 04:32:16;;;;;;;0.53;0.50;;;11.60;37.30;;;;;;10278438;28;20231;-74
2023/04/01 04:37:19;;;;;;;0.60;0.50;;;11.60;37.20;;;;;;10278821;28;20228;-73
2023/04/01 04:42:24;;;;;;;0.50;0.50;;;11.60;37.10;;;;;;10282919;28;20231;-73
2023/04/01 04:47:27;;;;;;;0.77;0.50;;;11.50;37.20;;;;;;10280878;28;20699;-74
2023/04/01 04:52:30;;;;;;;0.47;0.47;;;11.50;37.10;;;;;;10291200;28;20660;-74
2023/04/01 04:57:35;;;;;;;0.70;0.40;;;11.40;37.20;;;;;;10284047;28;20229;-74
2023/04/01 05:02:38;;;;;;;0.53;0.53;;;11.40;37.30;;;;;;10279756;28;20227;-73
2023/04/01 05:07:41;;;;;;;0.50;0.50;;;11.40;37.20;;;;;;10280527;28;20659;-74
2023/04/01 05:12:46;;;;;;;0.60;0.60;;;11.40;37.30;;;;;;10279606;28;20239;-74
2023/04/01 05:17:49;;;;;;;0.50;0.50;;;11.40;37.40;;;;;;10284507;28;20220;-73
2023/04/01 05:22:56;;;;;;;0.60;0.60;;;11.40;37.30;;;;;;10289563;28;20577;-74
2023/04/01 05:28:01;;;;;;;1.20;0.90;;;11.40;37.70;;;;;;10292078;28;20592;-74
2023/04/01 05:33:04;;;;;;;1.10;1.10;;;11.40;37.80;;;;;;10285322;28;20239;-69
2023/04/01 05:38:08;;;;;;;2.27;1.20;;;11.40;37.90;;;;;;10284656;28;20329;-70
2023/04/01 05:43:12;;;;;;;1.33;0.80;;;11.40;38.00;;;;;;10276685;28;20767;-70
2023/04/01 05:48:16;;;;;;;1.20;0.97;;;11.40;38.00;;;;;;10287139;28;20238;-71
2023/04/01 05:53:19;;;;;;;0.80;0.80;;;11.50;38.00;;;;;;10282385;28;20231;-70
2023/04/01 05:58:23;;;;;;;1.33;1.03;;;11.50;38.00;;;;;;10285510;28;20235;-69
2023/04/01 06:03:27;;;;;;;1.50;1.30;;;11.60;38.30;;;;;;10288399;28;20231;-69
2023/04/01 06:08:32;;;;;;;1.40;1.30;;;11.60;38.20;;;;;;10285463;28;20228;-69
2023/04/01 06:14:00;;;;;;;1.00;0.90;;;11.60;38.30;;;;;;10285161;28;20228;-70
2023/04/01 06:19:24;;;;;;;0.80;0.80;;;11.70;38.40;;;;;;10287687;28;20233;-70
2023/04/01 06:24:48;;;;;;;1.07;0.80;;;11.80;38.30;;;;;;10276410;28;20238;-69
2023/04/01 06:30:07;;;;;;;0.80;0.60;;;11.80;38.40;;;;;;10278140;28;20231;-74
2023/04/01 06:35:22;;;;;;;1.40;0.80;;;11.90;38.40;;;;;;10282724;28;20231;-74
2023/04/01 06:41:11;;;;;;;1.27;1.00;;;11.90;38.10;;;;;;10281660;28;20241;-74
2023/04/01 06:46:22;;;;;;;1.87;1.30;;;12.00;38.20;;;;;;10221561;28;20684;-74
2023/04/01 06:51:34;;;;;;;1.97;0.80;;;12.00;38.30;;;;;;10277433;28;20236;-74
2023/04/01 06:56:41;;;;;;;1.53;1.10;;;12.10;38.20;;;;;;10282094;28;20908;-74
2023/04/01 07:01:50;;;;;;;1.03;0.80;;;12.20;38.20;;;;;;10280416;28;20707;-77
2023/04/01 07:06:56;;;;;;;2.63;1.00;;;12.20;38.10;;;;;;10278953;28;20318;-74
2023/04/01 07:12:03;;;;;;;1.07;0.80;;;12.30;38.10;;;;;;10281059;28;20242;-74
2023/04/01 07:17:12;;;;;;;0.80;0.80;;;12.30;37.90;;;;;;10283048;28;20235;-73
2023/04/01 07:22:24;;;;;;;0.70;0.70;;;12.30;37.80;;;;;;10283248;28;20236;-73
2023/04/01 07:27:27;;;;;;;1.47;0.80;;;12.40;37.90;;;;;;10279160;28;20617;-73
2023/04/01 07:32:41;;;;;;;0.87;0.60;;;12.50;38.10;;;;;;10280912;28;20706;-74
2023/04/01 07:37:54;;;;;;;1.30;0.70;;;12.60;37.80;;;;;;10285464;28;20713;-74
2023/04/01 07:43:18;;;;;;;2.40;0.70;;;12.60;37.70;;;;;;10275935;28;20231;-74
2023/04/01 07:48:32;;;;;;;0.97;0.70;;;12.70;37.80;;;;;;10285558;28;20716;-69
2023/04/01 07:53:41;;;;;;;1.47;0.77;;;12.90;37.80;;;;;;10280933;28;20712;-71
2023/04/01 07:58:58;;;;;;;1.00;0.70;;;13.00;37.90;;;;;;10278927;28;20547;-69
2023/04/01 08:04:31;;;;;;;1.30;0.60;;;13.10;37.40;;;;;;10279019;28;20231;-70
2023/04/01 08:09:43;;;;;;;0.77;0.60;;;13.30;37.20;;;;;;10276252;28;20258;-72
2023/04/01 08:15:00;;;;;;;1.13;0.90;;;13.50;37.00;;;;;;10276735;28;20704;-70
2023/04/01 08:20:17;;;;;;;0.87;0.87;;;13.70;37.20;;;;;;10276029;28;20258;-70
2023/04/01 08:25:24;;;;;;;0.83;0.70;;;13.90;36.40;;;;;;10279929;28;20233;-70
2023/04/01 08:30:33;;;;;;;1.60;1.50;;;14.00;35.80;;;;;;10280513;28;21735;-71
2023/04/01 08:35:43;;;;;;;0.70;0.63;;;14.00;35.80;;;;;;10277585;28;20754;-72
2023/04/01 08:41:25;;;;;;;0.50;0.50;;;14.00;35.30;;;;;;10278357;28;20319;-71
2023/04/01 08:46:56;;;;;;;1.00;0.70;;;14.00;35.70;;;;;;10277709;28;20234;-71
2023/04/01 08:52:22;;;;;;;0.90;0.70;;;14.00;35.50;;;;;;10277751;28;20222;-71
2023/04/01 08:57:38;;;;;;;0.97;0.70;;;13.90;35.20;;;;;;10290361;28;20223;-71
2023/04/01 09:02:56;;;;;;;0.60;0.60;;;13.90;35.30;;;;;;10284500;28;20231;-71
2023/04/01 09:08:11;;;;;;;1.00;1.00;;;13.90;35.00;;;;;;10287718;28;20220;-70
2023/04/01 09:13:30;;;;;;;0.90;0.80;;;13.90;35.10;;;;;;10285000;28;20228;-71
2023/04/01 09:18:54;;;;;;;0.70;0.63;;;14.00;36.10;;;;;;10286569;28;20723;-71
2023/04/01 09:24:36;;;;;;;0.60;0.60;;;14.10;35.00;;;;;;10271862;28;20235;-71
2023/04/01 09:30:25;;;;;;;1.13;0.70;;;14.10;34.70;;;;;;10279694;28;20261;-70
2023/04/01 09:35:40;;;;;;;0.60;0.60;;;14.00;34.40;;;;;;10194304;28;20227;-70
2023/04/01 09:40:53;;;;;;;0.60;0.60;;;14.00;34.50;;;;;;10278446;28;20601;-71
2023/04/01 09:46:13;;;;;;;0.67;0.67;;;14.00;34.70;;;;;;10285497;28;20235;-70
2023/04/01 09:51:28;;;;;;;0.40;0.40;;;14.10;34.70;;;;;;10280451;28;20263;-71
2023/04/01 09:57:16;;;;;;;0.93;0.50;;;14.10;34.40;;;;;;10295210;28;20227;-71
2023/04/01 10:02:49;;;;;;;0.60;0.60;;;14.20;34.80;;;;;;10281470;28;20313;-70
2023/04/01 10:08:23;;;;;;;0.70;0.70;;;14.20;34.60;;;;;;10286676;28;20254;-70
2023/04/01 10:13:57;;;;;;;1.13;0.70;;;14.30;35.00;;;;;;10284718;28;20282;-70
2023/04/01 10:19:36;;;;;;;0.50;0.50;;;14.30;34.10;;;;;;10255885;28;20238;-72
2023/04/01 10:25:24;;;;;;;0.80;0.80;;;14.40;34.70;;;;;;10279189;28;20234;-70
2023/04/01 10:30:58;;;;;;;0.60;0.60;;;14.40;34.80;;;;;;10285827;28;20234;-71
2023/04/01 10:36:30;;;;;;;0.80;0.60;;;14.40;34.40;;;;;;10277592;28;20231;-70
2023/04/01 10:42:24;;;;;;;0.70;0.70;;;14.40;34.80;;;;;;10283712;28;20271;-70
2023/04/01 10:47:53;;;;;;;0.87;0.50;;;14.40;35.30;;;;;;10284770;28;20219;-71
2023/04/01 10:53:44;;;;;;;0.87;0.60;;;14.40;35.60;;;;;;10286970;28;20231;-71
2023/04/01 10:59:27;;;;;;;1.07;0.70;;;14.40;35.70;;;;;;10280458;28;20230;-71
2023/04/01 11:05:13;;;;;;;1.63;0.80;;;14.40;35.90;;;;;;10282310;28;20227;-71
2023/04/01 11:11:11;;;;;;;0.50;0.50;;;14.30;35.90;;;;;;10282598;28;20232;-71
2023/04/01 11:16:43;;;;;;;0.60;0.60;;;14.20;36.00;;;;;;10264283;28;20234;-71
2023/04/01 11:22:10;;;;;;;1.20;1.10;;;14.10;36.80;;;;;;10279528;28;20237;-71
2023/04/01 11:27:26;;;;;;;1.37;0.60;;;14.00;36.50;;;;;;10284002;28;20224;-71
2023/04/01 11:32:48;;;;;;;0.50;0.50;;;13.90;36.50;;;;;;10281991;28;20730;-71
2023/04/01 11:38:00;;;;;;;0.83;0.70;;;13.60;36.50;;;;;;10276458;28;20699;-71
2023/04/01 11:43:12;;;;;;;1.40;1.30;;;13.50;37.30;;;;;;10278141;28;20227;-71
2023/04/01 11:48:54;;;;;;;0.70;0.70;;;13.30;37.50;;;;;;10283291;28;20231;-71
2023/04/01 11:54:06;;;;;;;1.13;0.70;;;13.20;37.40;;;;;;10280574;28;20661;-71
2023/04/01 11:59:48;;;;;;;0.80;0.80;;;13.10;38.00;;;;;;10278225;28;20242;-67
2023/04/01 12:05:03;;;;;;;0.60;0.60;;;13.10;37.80;;;;;;10286252;28;20229;-68
2023/04/01 12:10:19;;;;;;;0.67;0.60;;;13.00;38.10;;;;;;10279894;28;20230;-68
2023/04/01 12:15:30;;;;;;;0.60;0.60;;;12.90;38.20;;;;;;10281489;28;20790;-68
2023/04/01 12:20:50;;;;;;;0.50;0.50;;;12.90;38.60;;;;;;10281549;28;20735;-67
2023/04/01 12:26:29;;;;;;;0.50;0.50;;;12.80;38.00;;;;;;10275433;28;20231;-68
2023/04/01 12:31:38;;;;;;;0.60;0.60;;;12.60;38.60;;;;;;10278904;28;20224;-68
2023/04/01 12:36:54;;;;;;;0.50;0.50;;;12.50;39.30;;;;;;10282164;28;20251;-68
2023/04/01 12:42:08;;;;;;;0.70;0.70;;;12.50;39.60;;;;;;10279008;28;20310;-68
2023/04/01 12:47:25;;;;;;;0.60;0.60;;;12.50;39.90;;;;;;10277238;28;20750;-68
2023/04/01 12:52:42;;;;;;;0.90;0.90;;;12.50;39.50;;;;;;10279032;28;20227;-68
2023/04/01 12:58:16;;;;;;;1.17;1.00;;;12.60;39.40;;;;;;10282521;28;20223;-68
2023/04/01 13:03:37;;;;;;;0.53;0.53;;;12.70;39.50;;;;;;10279588;28;20253;-68
2023/04/01 13:08:48;;;;;;;0.93;0.63;;;12.70;39.00;;;;;;10279539;28;20230;-68
2023/04/01 13:14:20;;;;;;;2.10;0.60;;;12.80;39.50;;;;;;10276997;28;20239;-68
2023/04/01 13:19:42;;;;;;;0.40;0.40;;;12.90;39.00;;;;;;10272991;28;20318;-68
2023/04/01 13:25:04;;;;;;;0.57;0.57;;;12.90;39.30;;;;;;10280380;28;20256;-68
2023/04/01 13:30:25;;;;;;;0.50;0.50;;;13.00;39.20;;;;;;10276938;28;20603;-69
2023/04/01 13:35:38;;;;;;;0.50;0.50;;;13.00;39.10;;;;;;10279843;28;20671;-68
2023/04/01 13:40:50;;;;;;;0.50;0.50;;;13.00;39.00;;;;;;10281794;28;20238;-71
2023/04/01 13:46:35;;;;;;;0.50;0.50;;;13.10;39.20;;;;;;10284673;28;20375;-71
2023/04/01 13:52:13;;;;;;;0.50;0.50;;;13.10;39.40;;;;;;10283560;28;20232;-71
2023/04/01 13:57:30;;;;;;;0.73;0.50;;;13.00;39.60;;;;;;10244601;28;20239;-71
2023/04/01 14:02:56;;;;;;;0.67;0.67;;;13.00;40.00;;;;;;10286090;28;20231;-71
2023/04/01 14:08:11;;;;;;;0.60;0.60;;;13.00;39.90;;;;;;10287753;28;20223;-71
2023/04/01 14:13:19;;;;;;;0.60;0.60;;;13.00;40.50;;;;;;10287764;28;20224;-71
2023/04/01 14:18:54;;;;;;;0.40;0.40;;;13.10;40.20;;;;;;10283772;28;20376;-71
2023/04/01 14:24:33;;;;;;;0.60;0.60;;;13.10;39.90;;;;;;10283312;28;20231;-71
2023/04/01 14:29:42;;;;;;;0.90;0.90;;;13.10;40.40;;;;;;10281786;28;20226;-71
2023/04/01 14:34:58;;;;;;;0.60;0.60;;;13.10;40.30;;;;;;10282790;28;20224;-71
2023/04/01 14:40:21;;;;;;;0.60;0.60;;;13.10;40.40;;;;;;10285135;28;20231;-71
2023/04/01 14:45:57;;;;;;;1.10;0.90;;;13.20;40.20;;;;;;10281458;28;20688;-71
2023/04/01 14:51:11;;;;;;;0.70;0.70;;;13.30;40.10;;;;;;10266642;28;20243;-71
2023/04/01 14:56:41;;;;;;;0.53;0.53;;;13.40;39.80;;;;;;10285493;28;20692;-71
2023/04/01 15:01:51;;;;;;;0.87;0.80;;;13.40;39.60;;;;;;10277384;28;20803;-71
2023/04/01 15:07:12;;;;;;;0.70;0.70;;;13.50;39.60;;;;;;10283546;28;20473;-71
2023/04/01 15:12:24;;;;;;;0.60;0.60;;;13.50;39.30;;;;;;10279332;28;20239;-71
2023/04/01 15:17:49;;;;;;;0.80;0.80;;;13.60;39.40;;;;;;10281264;28;20325;-71
2023/04/01 15:23:02;;;;;;;1.60;0.90;;;13.60;39.20;;;;;;10281592;28;20234;-71
2023/04/01 15:28:17;;;;;;;0.87;0.77;;;13.60;39.00;;;;;;10285555;28;20799;-71
2023/04/01 15:33:46;;;;;;;0.60;0.60;;;13.70;39.10;;;;;;10279269;28;20231;-71
2023/04/01 15:38:54;;;;;;;0.60;0.60;;;13.70;39.20;;;;;;10283834;28;20612;-71
2023/04/01 15:43:57;;;;;;;0.50;0.50;;;13.60;39.10;;;;;;10280849;28;20242;-71
2023/04/01 15:49:06;;;;;;;0.87;0.60;;;13.60;38.90;;;;;;10284198;28;20232;-71
2023/04/01 15:54:28;;;;;;;0.57;0.57;;;13.50;39.20;;;;;;10273838;28;20268;-71
2023/04/01 16:00:07;;;;;;;0.63;0.63;;;13.50;39.60;;;;;;10275332;28;20227;-71
2023/04/01 16:05:23;;;;;;;1.27;0.70;;;13.40;39.40;;;;;;10284856;28;20240;-71
2023/04/01 16:10:51;;;;;;;0.60;0.60;;;13.40;39.40;;;;;;10281869;28;20234;-71
2023/04/01 16:16:03;;;;;;;0.67;0.67;;;13.30;39.50;;;;;;10278528;28;20596;-71
2023/04/01 16:21:11;;;;;;;1.30;0.80;;;13.30;40.10;;;;;;10285356;28;20356;-71
2023/04/01 16:26:23;;;;;;;1.13;0.73;;;13.30;39.60;;;;;;10277618;28;20235;-71
2023/04/01 16:31:35;;;;;;;0.80;0.80;;;13.30;39.70;;;;;;10280136;28;20584;-71
2023/04/01 16:36:46;;;;;;;1.10;1.00;;;13.30;39.70;;;;;;10274571;28;20239;-70
2023/04/01 16:41:56;;;;;;;0.60;0.60;;;13.40;39.50;;;;;;10279367;28;20246;-71
2023/04/01 16:47:07;;;;;;;0.63;0.63;;;13.40;39.20;;;;;;10279622;28;20606;-71
2023/04/01 16:52:18;;;;;;;0.63;0.63;;;13.40;39.20;;;;;;10276815;28;20740;-73
2023/04/01 16:57:27;;;;;;;0.60;0.60;;;13.40;39.40;;;;;;10279832;28;20672;-70
2023/04/01 17:02:38;;;;;;;0.63;0.63;;;13.50;39.10;;;;;;10279579;28;20286;-70
2023/04/01 17:07:49;;;;;;;0.73;0.73;;;13.50;38.90;;;;;;10282096;28;20286;-70
2023/04/01 17:13:16;;;;;;;0.60;0.60;;;13.50;38.90;;;;;;10280527;28;20227;-72
2023/04/01 17:18:26;;;;;;;0.60;0.60;;;13.50;38.80;;;;;;10281118;28;20707;-70
2023/04/01 17:23:36;;;;;;;0.80;0.80;;;13.50;38.80;;;;;;10291827;28;20254;-70
2023/04/01 17:28:49;;;;;;;1.13;1.00;;;13.50;38.80;;;;;;10279435;28;20242;-70
2023/04/01 17:34:19;;;;;;;1.20;1.10;;;13.50;38.90;;;;;;10285700;28;20241;-71
2023/04/01 17:39:45;;;;;;;1.37;1.20;;;13.50;38.90;;;;;;10281996;28;21162;-71
2023/04/01 17:44:59;;;;;;;1.30;1.20;;;13.50;39.20;;;;;;10289725;28;20235;-71
2023/04/01 17:50:15;;;;;;;1.50;1.40;;;13.40;38.90;;;;;;10283379;28;20232;-71
2023/04/01 17:55:40;;;;;;;1.67;1.57;;;13.40;39.10;;;;;;10284936;28;20218;-71
2023/04/01 18:00:59;;;;;;;1.27;1.17;;;13.40;39.00;;;;;;10287490;28;20536;-71
2023/04/01 18:06:08;;;;;;;0.90;0.90;;;13.30;39.20;;;;;;10285193;28;20554;-71
2023/04/01 18:11:20;;;;;;;1.13;1.13;;;13.20;39.20;;;;;;10282749;28;20844;-71
2023/04/01 18:16:47;;;;;;;1.13;1.10;;;13.20;39.40;;;;;;10288809;28;20236;-71
2023/04/01 18:21:55;;;;;;;1.17;1.07;;;13.10;39.50;;;;;;10287213;28;20234;-71
2023/04/01 18:27:05;;;;;;;0.97;0.97;;;13.10;39.20;;;;;;10276327;28;20240;-71
2023/04/01 18:32:27;;;;;;;1.47;1.37;;;13.10;39.30;;;;;;10286605;28;20274;-71
2023/04/01 18:37:37;;;;;;;10.20;6.87;;;13.10;39.10;;;;;;10282683;28;20231;-71
2023/04/01 18:42:48;;;;;;;20.03;17.90;;;13.10;39.40;;;;;;10281964;28;20233;-71
2023/04/01 18:48:02;;;;;;;2.87;2.17;;;13.10;39.30;;;;;;10290944;28;20235;-71
2023/04/01 18:53:18;;;;;;;1.87;1.50;;;13.10;39.40;;;;;;10281175;28;20465;-71
2023/04/01 18:58:34;;;;;;;1.30;1.20;;;13.10;39.40;;;;;;10280656;28;21395;-71
2023/04/01 19:03:47;;;;;;;1.20;1.10;;;13.10;39.30;;;;;;10280039;28;20227;-72
2023/04/01 19:08:52;;;;;;;1.13;1.13;;;13.10;39.30;;;;;;10286019;28;20231;-71
2023/04/01 19:14:07;;;;;;;1.80;1.70;;;13.10;39.20;;;;;;10284317;28;20302;-71
2023/04/01 19:19:39;;;;;;;1.60;1.50;;;13.00;39.50;;;;;;10280704;28;20227;-71
2023/04/01 19:24:56;;;;;;;2.07;1.90;;;13.00;39.40;;;;;;10282886;28;20885;-71
2023/04/01 19:30:16;;;;;;;2.50;2.30;;;13.00;39.50;;;;;;10281063;28;20227;-71
2023/04/01 19:35:29;;;;;;;1.70;1.60;;;13.00;39.50;;;;;;10281148;28;20224;-71
2023/04/01 19:40:44;;;;;;;1.53;1.43;;;13.10;39.50;;;;;;10277682;28;20239;-72
2023/04/01 19:45:55;;;;;;;1.60;1.30;;;13.10;39.30;;;;;;10279010;28;20235;-71
2023/04/01 19:51:07;;;;;;;1.50;1.00;;;13.10;39.20;;;;;;10282854;28;20234;-71
2023/04/01 19:56:17;;;;;;;1.83;1.40;;;13.20;39.20;;;;;;10281781;28;20224;-71
2023/04/01 20:01:28;;;;;;;1.13;0.90;;;13.10;39.20;;;;;;10284729;28;20233;-71
2023/04/01 20:06:57;;;;;;;0.87;0.87;;;13.10;39.10;;;;;;10282169;28;20620;-71
2023/04/01 20:12:09;;;;;;;1.93;1.00;;;13.10;39.30;;;;;;10278739;28;20642;-71
2023/04/01 20:17:20;;;;;;;0.70;0.70;;;13.10;40.10;;;;;;10279294;28;20244;-71
2023/04/01 20:23:01;;;;;;;0.70;0.70;;;13.10;39.20;;;;;;10278057;28;20242;-71
2023/04/01 20:28:12;;;;;;;0.70;0.70;;;13.10;39.10;;;;;;10283065;28;20676;-71
2023/04/01 20:33:33;;;;;;;0.90;0.90;;;13.10;39.10;;;;;;10276485;28;20296;-71
2023/04/01 20:39:15;;;;;;;0.90;0.90;;;13.10;39.00;;;;;;10274413;28;20247;-70
2023/04/01 20:44:30;;;;;;;0.90;0.77;;;13.10;39.00;;;;;;10277705;28;20218;-71
2023/04/01 20:49:42;;;;;;;0.70;0.70;;;13.10;39.00;;;;;;10289707;28;20282;-71
2023/04/01 20:55:03;;;;;;;0.70;0.70;;;13.00;40.00;;;;;;10289998;28;20742;-71
2023/04/01 21:00:22;;;;;;;1.03;0.80;;;13.00;39.50;;;;;;10297872;28;20585;-71
2023/04/01 21:05:45;;;;;;;0.70;0.70;;;13.00;39.30;;;;;;10285892;28;20719;-71
2023/04/01 21:10:58;;;;;;;0.73;0.60;;;13.00;39.10;;;;;;10291364;28;20227;-71
2023/04/01 21:16:14;;;;;;;0.97;0.70;;;12.90;38.90;;;;;;10291233;28;20228;-71
2023/04/01 21:21:36;;;;;;;0.70;0.70;;;12.90;39.10;;;;;;10295480;28;20674;-71
2023/04/01 21:26:52;;;;;;;0.80;0.70;;;12.80;39.00;;;;;;10295681;28;20226;-71
2023/04/01 21:32:11;;;;;;;0.70;0.70;;;12.80;38.90;;;;;;10292053;28;20708;-71
2023/04/01 21:37:34;;;;;;;1.00;0.60;;;12.80;38.90;;;;;;10289781;28;20699;-71
2023/04/01 21:42:49;;;;;;;0.70;0.70;;;12.80;39.10;;;;;;10285600;28;20235;-71
2023/04/01 21:48:29;;;;;;;0.60;0.60;;;12.80;39.00;;;;;;10286635;28;20223;-71
2023/04/01 21:53:50;;;;;;;0.70;0.70;;;12.80;39.00;;;;;;10289950;28;20709;-71
2023/04/01 21:59:32;;;;;;;0.70;0.70;;;12.80;39.10;;;;;;10298096;28;20722;-71
2023/04/01 22:04:48;;;;;;;0.70;0.70;;;12.80;39.10;;;;;;10287541;28;20220;-71
2023/04/01 22:10:02;;;;;;;0.70;0.70;;;12.70;38.90;;;;;;10278026;28;20297;-71
2023/04/01 22:15:17;;;;;;;0.60;0.60;;;12.70;39.00;;;;;;10281838;28;20227;-71
2023/04/01 22:20:28;;;;;;;0.77;0.77;;;12.70;39.00;;;;;;10288435;28;20716;-71
2023/04/01 22:25:39;;;;;;;0.80;0.80;;;12.60;38.90;;;;;;10284182;28;20239;-71
2023/04/01 22:30:49;;;;;;;0.97;0.70;;;12.60;39.10;;;;;;10283420;28;20239;-71
2023/04/01 22:35:58;;;;;;;0.80;0.80;;;12.50;39.00;;;;;;10284590;28;20230;-71
2023/04/01 22:41:09;;;;;;;1.17;0.60;;;12.50;39.10;;;;;;10283562;28;20879;-71
2023/04/01 22:46:30;;;;;;;1.63;0.70;;;12.50;39.20;;;;;;10282462;28;20224;-71
2023/04/01 22:51:44;;;;;;;0.70;0.70;;;12.50;39.30;;;;;;10280098;28;20231;-71
2023/04/01 22:56:53;;;;;;;1.00;0.60;;;12.50;39.30;;;;;;10289909;28;20715;-71
2023/04/01 23:02:01;;;;;;;0.80;0.60;;;12.40;39.10;;;;;;10281638;28;20819;-71
2023/04/01 23:07:25;;;;;;;0.90;0.87;;;12.40;39.20;;;;;;10285926;28;20235;-71
2023/04/01 23:12:30;;;;;;;0.60;0.60;;;12.40;39.00;;;;;;10287074;28;20231;-71
2023/04/01 23:17:51;;;;;;;0.73;0.70;;;12.40;39.20;;;;;;10281808;28;20645;-71
2023/04/01 23:23:09;;;;;;;0.60;0.60;;;12.30;39.40;;;;;;10281471;28;20234;-72
2023/04/01 23:28:48;;;;;;;0.60;0.60;;;12.30;39.30;;;;;;10282210;28;20232;-72
2023/04/01 23:33:56;;;;;;;0.60;0.60;;;12.30;39.40;;;;;;10264652;28;20242;-71
2023/04/01 23:39:05;;;;;;;0.70;0.70;;;12.30;39.40;;;;;;10285330;28;20708;-70
2023/04/01 23:44:12;;;;;;;0.87;0.70;;;12.30;39.40;;;;;;10277276;28;20231;-71
2023/04/01 23:49:22;;;;;;;0.90;0.90;;;12.40;39.20;;;;;;10280361;28;21707;-70
2023/04/01 23:54:31;;;;;;;0.60;0.60;;;12.40;39.30;;;;;;10281861;28;20644;-71
2023/04/01 23:59:37;;;;;;;1.00;0.77;;;12.40;39.30;;;;;;10282407;28;20264;-71
